Time;durP1;ratioP1;P1;durP2;ratioP2;P2;SDS_P1;SDS_P2;PMS_P1;PMS_P2;Temp;Humidity;BMP_temperature;BMP_pressure;BME280_temperature;BME280_humidity;BME280_pressure;Samples;Min_cycle;Max_cycle;Signal;HPM_P1;HPM_P2
2022/12/06 00:01:38;;;;;;;;;;;;;;;36.99;nan;101148.13;5072436;28;19921;-63
2022/12/06 00:04:07;;;;;;;;;;;;;;;37.15;nan;101134.78;5070184;28;19917;-64
2022/12/06 00:06:38;;;;;;;;;;;;;;;36.59;nan;101145.22;5069854;28;19931;-63
2022/12/06 00:09:06;;;;;;;;;;;;;;;36.76;nan;101148.94;5071121;28;19920;-65
2022/12/06 00:11:33;;;;;;;;;;;;;;;37.62;nan;101142.25;5069701;28;19970;-63
2022/12/06 00:14:01;;;;;;;;;;;;;;;37.78;nan;101143.13;5075547;28;19989;-62
2022/12/06 00:16:29;;;;;;;;;;;;;;;37.15;nan;101145.31;5071532;28;19921;-62
2022/12/06 00:18:56;;;;;;;;;;;;;;;36.82;nan;101133.88;5073961;28;19974;-62
2022/12/06 00:21:29;;;;;;;;;;;;;;;35.83;nan;101147.69;5074043;28;19921;-62
2022/12/06 00:23:57;;;;;;;;;;;;;;;37.64;nan;101136.94;5072772;28;20306;-63
2022/12/06 00:26:24;;;;;;;;;;;;;;;36.13;nan;101143.22;5072757;28;19927;-62
2022/12/06 00:28:52;;;;;;;;;;;;;;;36.66;nan;101139.44;5072443;28;20066;-63
2022/12/06 00:31:19;;;;;;;;;;;;;;;37.19;nan;101140.38;5071537;28;19917;-62
2022/12/06 00:33:46;;;;;;;;;;;;;;;36.43;nan;101147.94;5074219;28;19960;-63
2022/12/06 00:36:13;;;;;;;;;;;;;;;36.40;nan;101152.44;5076633;28;20040;-63
2022/12/06 00:38:40;;;;;;;;;;;;;;;35.43;nan;101152.34;5075255;28;19942;-63
2022/12/06 00:41:08;;;;;;;;;;;;;;;36.50;nan;101153.50;5071574;28;19990;-63
2022/12/06 00:43:35;;;;;;;;;;;;;;;36.96;nan;101149.75;5074199;28;19974;-62
2022/12/06 00:46:02;;;;;;;;;;;;;;;36.52;nan;101154.66;5086183;28;20068;-62
2022/12/06 00:48:28;;;;;;;;;;;;;;;37.16;nan;101155.41;5077601;28;20023;-63
2022/12/06 00:50:55;;;;;;;;;;;;;;;36.94;nan;101145.75;5080490;28;19920;-62
2022/12/06 00:53:22;;;;;;;;;;;;;;;36.64;nan;101144.72;5083309;28;19931;-63
2022/12/06 00:55:49;;;;;;;;;;;;;;;36.38;nan;101154.91;5072039;28;19943;-63
2022/12/06 00:58:15;;;;;;;;;;;;;;;36.27;nan;101154.28;5077772;28;19982;-62
2022/12/06 01:00:42;;;;;;;;;;;;;;;36.33;nan;101160.28;5084010;28;19920;-62
2022/12/06 01:03:09;;;;;;;;;;;;;;;36.44;nan;101164.50;5080228;28;19920;-62
2022/12/06 01:05:42;;;;;;;;;;;;;;;37.59;nan;101155.31;5086461;28;19988;-62
2022/12/06 01:08:09;;;;;;;;;;;;;;;37.58;nan;101167.09;5075108;28;20007;-63
2022/12/06 01:10:36;;;;;;;;;;;;;;;37.64;nan;101153.97;5089494;28;20401;-62
2022/12/06 01:13:02;;;;;;;;;;;;;;;37.77;nan;101177.59;5080723;28;19928;-62
2022/12/06 01:15:30;;;;;;;;;;;;;;;37.65;nan;101169.75;5085441;28;20531;-62
2022/12/06 01:17:56;;;;;;;;;;;;;;;37.56;nan;101178.06;5078472;28;19959;-62
2022/12/06 01:20:23;;;;;;;;;;;;;;;37.72;nan;101183.78;5081326;28;19961;-61
2022/12/06 01:22:49;;;;;;;;;;;;;;;37.64;nan;101176.66;5084880;28;19920;-61
2022/12/06 01:25:15;;;;;;;;;;;;;;;37.44;nan;101186.00;5082914;28;19969;-64
2022/12/06 01:27:41;;;;;;;;;;;;;;;37.42;nan;101188.50;5072554;28;20003;-63
2022/12/06 01:30:08;;;;;;;;;;;;;;;37.35;nan;101197.16;5076613;28;19916;-62
2022/12/06 01:32:34;;;;;;;;;;;;;;;37.15;nan;101193.50;5075666;28;19955;-62
2022/12/06 01:35:00;;;;;;;;;;;;;;;37.03;nan;101200.63;5072286;28;20370;-63
2022/12/06 01:37:26;;;;;;;;;;;;;;;36.96;nan;101199.97;5076582;28;19920;-61
2022/12/06 01:39:53;;;;;;;;;;;;;;;35.33;nan;101210.59;5070564;28;19924;-62
2022/12/06 01:42:19;;;;;;;;;;;;;;;33.68;nan;101211.63;5082275;28;19924;-62
2022/12/06 01:44:50;;;;;;;;;;;;;;;34.24;nan;101218.94;5078473;28;20083;-62
2022/12/06 01:47:22;;;;;;;;;;;;;;;34.69;nan;101219.78;5064723;28;20386;-61
2022/12/06 01:49:51;;;;;;;;;;;;;;;35.82;nan;101225.31;5071124;28;19943;-62
2022/12/06 01:52:18;;;;;;;;;;;;;;;36.16;nan;101213.09;5065100;28;20302;-62
2022/12/06 01:54:46;;;;;;;;;;;;;;;36.15;nan;101219.97;5068439;28;20357;-62
2022/12/06 01:57:14;;;;;;;;;;;;;;;35.68;nan;101215.00;5067123;28;19952;-62
2022/12/06 01:59:41;;;;;;;;;;;;;;;36.41;nan;101221.19;5069081;28;19928;-62
2022/12/06 02:02:09;;;;;;;;;;;;;;;34.80;nan;101231.75;5071154;28;19916;-63
2022/12/06 02:04:35;;;;;;;;;;;;;;;33.96;nan;101239.69;5066893;28;19916;-63
2022/12/06 02:07:02;;;;;;;;;;;;;;;33.71;nan;101236.19;5070574;28;19977;-63
2022/12/06 02:09:28;;;;;;;;;;;;;;;34.33;nan;101233.38;5069445;28;19982;-63
2022/12/06 02:11:55;;;;;;;;;;;;;;;35.33;nan;101230.38;5067416;28;19928;-63
2022/12/06 02:14:23;;;;;;;;;;;;;;;36.13;nan;101233.78;5072438;28;19920;-63
2022/12/06 02:16:55;;;;;;;;;;;;;;;34.71;nan;101247.59;5073610;28;19920;-59
2022/12/06 02:19:40;;;;;;;;;;;;;;;35.40;nan;101249.31;5068522;28;19927;-62
2022/12/06 02:22:41;;;;;;;;;;;;;;;34.95;nan;101257.06;5069746;28;19920;-61
2022/12/06 02:25:40;;;;;;;;;;;;;;;34.20;nan;101269.75;5025152;28;19968;-62
2022/12/06 02:28:06;;;;;;;;;;;;;;;33.50;nan;101273.72;5035595;28;19949;-60
2022/12/06 02:30:42;;;;;;;;;;;;;;;33.67;nan;101266.41;5071767;28;19917;-62
2022/12/06 02:33:27;;;;;;;;;;;;;;;34.97;nan;101269.53;5068369;28;20341;-60
2022/12/06 02:35:58;;;;;;;;;;;;;;;34.97;nan;101278.00;5067630;28;19939;-60
2022/12/06 02:38:35;;;;;;;;;;;;;;;34.06;nan;101280.31;5069207;28;19955;-63
2022/12/06 02:41:07;;;;;;;;;;;;;;;34.73;nan;101279.84;5065657;28;19929;-62
2022/12/06 02:43:37;;;;;;;;;;;;;;;33.65;nan;101283.75;5060413;28;19924;-61
2022/12/06 02:46:04;;;;;;;;;;;;;;;34.84;nan;101271.28;5097007;27;19958;-62
2022/12/06 02:48:31;;;;;;;;;;;;;;;34.92;nan;101275.66;5066324;28;19924;-63
2022/12/06 02:51:03;;;;;;;;;;;;;;;34.57;nan;101267.47;5061651;28;19925;-62
2022/12/06 02:53:31;;;;;;;;;;;;;;;34.54;nan;101271.94;5067637;28;19982;-63
2022/12/06 02:55:58;;;;;;;;;;;;;;;34.29;nan;101271.28;5068533;28;19920;-62
2022/12/06 02:58:24;;;;;;;;;;;;;;;35.61;nan;101270.84;5069091;28;20035;-61
2022/12/06 03:01:13;;;;;;;;;;;;;;;35.11;nan;101279.88;5071876;28;19920;-63
2022/12/06 03:03:39;;;;;;;;;;;;;;;34.74;nan;101281.44;5060784;28;19921;-62
2022/12/06 03:06:19;;;;;;;;;;;;;;;34.91;nan;101291.00;5071735;28;19988;-64
2022/12/06 03:08:57;;;;;;;;;;;;;;;34.95;nan;101286.09;5063814;28;19921;-63
2022/12/06 03:11:28;;;;;;;;;;;;;;;34.11;nan;101289.16;5061226;28;19928;-62
2022/12/06 03:14:11;;;;;;;;;;;;;;;33.58;nan;101297.88;5059431;28;20398;-62
2022/12/06 03:17:03;;;;;;;;;;;;;;;33.33;nan;101295.94;5056408;28;19927;-62
2022/12/06 03:19:30;;;;;;;;;;;;;;;33.17;nan;101292.72;5059558;28;19921;-61
2022/12/06 03:22:08;;;;;;;;;;;;;;;34.46;nan;101302.22;5061969;28;19920;-61
2022/12/06 03:24:36;;;;;;;;;;;;;;;34.14;nan;101293.19;5058350;28;19921;-61
2022/12/06 03:27:08;;;;;;;;;;;;;;;34.07;nan;101304.50;5064014;28;19927;-61
2022/12/06 03:29:37;;;;;;;;;;;;;;;33.45;nan;101296.72;5059266;28;19929;-61
2022/12/06 03:32:05;;;;;;;;;;;;;;;31.69;nan;101302.53;5062333;28;19931;-61
2022/12/06 03:34:35;;;;;;;;;;;;;;;33.13;nan;101296.75;5057619;28;19924;-61
2022/12/06 03:37:03;;;;;;;;;;;;;;;32.25;nan;101296.31;5058787;28;19927;-61
2022/12/06 03:39:49;;;;;;;;;;;;;;;32.11;nan;101301.91;5058988;28;20379;-61
2022/12/06 03:42:17;;;;;;;;;;;;;;;31.62;nan;101299.72;5058245;28;19928;-63
2022/12/06 03:44:44;;;;;;;;;;;;;;;30.92;nan;101302.50;5055537;28;20375;-62
2022/12/06 03:47:13;;;;;;;;;;;;;;;32.26;nan;101299.94;5077645;28;19921;-61
2022/12/06 03:49:47;;;;;;;;;;;;;;;30.19;nan;101304.22;5057132;28;19917;-61
2022/12/06 03:52:13;;;;;;;;;;;;;;;31.10;nan;101299.00;5060645;28;19932;-62
2022/12/06 03:54:41;;;;;;;;;;;;;;;31.28;nan;101302.75;5057103;28;20332;-62
2022/12/06 03:57:08;;;;;;;;;;;;;;;31.47;nan;101305.25;5059001;28;20379;-61
2022/12/06 03:59:34;;;;;;;;;;;;;;;30.36;nan;101297.97;5069090;28;20027;-62
2022/12/06 04:02:00;;;;;;;;;;;;;;;31.61;nan;101312.16;5071249;28;20282;-61
2022/12/06 04:04:27;;;;;;;;;;;;;;;30.70;nan;101300.69;5061483;28;19936;-65
2022/12/06 04:06:53;;;;;;;;;;;;;;;30.46;nan;101306.84;5078072;28;19925;-63
2022/12/06 04:12:59;;;;;;;;;;;;;;;30.65;nan;101303.84;5085488;28;19921;-63
2022/12/06 04:14:50;;;;;;;;;;;;;;;31.71;nan;101317.00;5058635;28;20060;-63
2022/12/06 04:20:01;;;;;;;;;;;;;;;30.41;nan;101310.03;5100297;27;19920;-64
2022/12/06 04:25:12;;;;;;;;;;;;;;;30.96;nan;101302.50;5065101;28;19916;-64
2022/12/06 04:38:43;;;;;;;;;;;;;;;30.42;nan;101322.84;5059738;28;20323;-63
2022/12/06 04:43:40;;;;;;;;;;;;;;;31.40;nan;101310.81;5063759;28;20346;-64
2022/12/06 04:43:57;;;;;;;;;;;;;;;30.70;nan;101316.72;5070081;28;19974;-65
2022/12/06 04:46:23;;;;;;;;;;;;;;;30.76;nan;101313.19;5105865;28;19924;-64
2022/12/06 04:48:50;;;;;;;;;;;;;;;32.33;nan;101316.88;5063933;28;19966;-63
2022/12/06 04:51:16;;;;;;;;;;;;;;;29.83;nan;101335.78;5074688;28;20001;-63
2022/12/06 04:53:42;;;;;;;;;;;;;;;30.65;nan;101329.09;5062859;28;19982;-64
2022/12/06 04:56:08;;;;;;;;;;;;;;;29.89;nan;101328.66;5064075;28;20008;-64
2022/12/06 04:58:34;;;;;;;;;;;;;;;29.69;nan;101331.63;5069509;28;19920;-63
2022/12/06 05:01:01;;;;;;;;;;;;;;;31.03;nan;101332.63;5067606;28;19927;-63
2022/12/06 05:03:27;;;;;;;;;;;;;;;30.86;nan;101332.09;5065958;28;19920;-65
2022/12/06 05:05:53;;;;;;;;;;;;;;;30.17;nan;101320.63;5075581;28;19920;-63
2022/12/06 05:08:19;;;;;;;;;;;;;;;31.73;nan;101329.50;5066033;28;19979;-66
2022/12/06 05:10:46;;;;;;;;;;;;;;;31.03;nan;101327.00;5060301;28;19974;-63
2022/12/06 05:13:13;;;;;;;;;;;;;;;31.60;nan;101345.06;5060330;28;19975;-63
2022/12/06 05:15:39;;;;;;;;;;;;;;;31.56;nan;101347.03;5059749;28;19924;-62
2022/12/06 05:18:05;;;;;;;;;;;;;;;32.38;nan;101336.16;5067282;28;19934;-61
2022/12/06 05:20:32;;;;;;;;;;;;;;;30.54;nan;101337.41;5065834;28;20391;-63
2022/12/06 05:22:58;;;;;;;;;;;;;;;31.24;nan;101333.63;5065686;28;20330;-62
2022/12/06 05:25:24;;;;;;;;;;;;;;;31.47;nan;101344.59;5069395;28;20350;-62
2022/12/06 05:27:50;;;;;;;;;;;;;;;30.72;nan;101342.41;5072312;28;19920;-62
2022/12/06 05:30:17;;;;;;;;;;;;;;;31.91;nan;101346.44;5072106;28;19924;-63
2022/12/06 05:32:43;;;;;;;;;;;;;;;31.42;nan;101333.75;5068857;28;19925;-63
2022/12/06 05:35:09;;;;;;;;;;;;;;;31.29;nan;101338.06;5065807;28;20395;-62
2022/12/06 05:37:36;;;;;;;;;;;;;;;31.49;nan;101339.38;5072633;28;19921;-62
2022/12/06 05:40:02;;;;;;;;;;;;;;;31.10;nan;101341.91;5076981;28;19992;-63
2022/12/06 05:42:29;;;;;;;;;;;;;;;31.38;nan;101332.88;5070186;28;20500;-63
2022/12/06 05:44:55;;;;;;;;;;;;;;;30.83;nan;101340.50;5058111;28;19921;-62
2022/12/06 05:47:22;;;;;;;;;;;;;;;30.22;nan;101353.91;5062911;28;20021;-62
2022/12/06 05:49:48;;;;;;;;;;;;;;;32.12;nan;101357.75;5067914;28;19928;-62
2022/12/06 05:52:14;;;;;;;;;;;;;;;31.00;nan;101345.44;5066456;28;19932;-63
2022/12/06 05:54:40;;;;;;;;;;;;;;;30.94;nan;101350.63;5070387;28;20488;-61
2022/12/06 05:57:08;;;;;;;;;;;;;;;31.97;nan;101342.06;5062132;28;19927;-60
2022/12/06 05:59:34;;;;;;;;;;;;;;;30.67;nan;101343.56;5062771;28;20341;-61
2022/12/06 06:02:00;;;;;;;;;;;;;;;29.86;nan;101346.25;5065016;28;20490;-61
2022/12/06 06:04:27;;;;;;;;;;;;;;;30.22;nan;101348.31;5062887;28;20033;-61
2022/12/06 06:06:53;;;;;;;;;;;;;;;30.07;nan;101352.13;5071496;28;19920;-61
2022/12/06 06:09:19;;;;;;;;;;;;;;;30.83;nan;101355.31;5072101;28;19923;-61
2022/12/06 06:11:46;;;;;;;;;;;;;;;30.66;nan;101355.97;5071785;28;20023;-61
2022/12/06 06:14:13;;;;;;;;;;;;;;;29.47;nan;101357.72;5074850;28;19924;-61
2022/12/06 06:16:40;;;;;;;;;;;;;;;29.84;nan;101355.03;5074640;28;19998;-61
2022/12/06 06:19:06;;;;;;;;;;;;;;;31.01;nan;101357.47;5070682;28;19982;-61
2022/12/06 06:21:32;;;;;;;;;;;;;;;30.46;nan;101360.16;5068654;28;19964;-61
2022/12/06 06:23:58;;;;;;;;;;;;;;;29.53;nan;101344.19;5066630;28;19959;-61
2022/12/06 06:26:25;;;;;;;;;;;;;;;30.51;nan;101342.97;5069911;28;19924;-62
2022/12/06 06:28:51;;;;;;;;;;;;;;;30.66;nan;101344.75;5071169;28;19967;-61
2022/12/06 06:31:17;;;;;;;;;;;;;;;30.47;nan;101342.94;5066922;28;20331;-60
2022/12/06 06:33:43;;;;;;;;;;;;;;;31.26;nan;101350.09;5063392;28;20193;-60
2022/12/06 06:36:10;;;;;;;;;;;;;;;31.57;nan;101357.06;5077470;28;20435;-60
2022/12/06 06:38:37;;;;;;;;;;;;;;;29.56;nan;101352.63;5073842;28;19960;-60
2022/12/06 06:41:04;;;;;;;;;;;;;;;29.36;nan;101356.72;5069857;28;19971;-60
2022/12/06 06:43:31;;;;;;;;;;;;;;;31.76;nan;101361.63;5073925;28;20015;-60
2022/12/06 06:45:59;;;;;;;;;;;;;;;30.95;nan;101352.22;5071721;28;19920;-61
2022/12/06 06:48:26;;;;;;;;;;;;;;;30.39;nan;101352.47;5074871;28;19966;-60
2022/12/06 06:50:55;;;;;;;;;;;;;;;30.71;nan;101357.63;5070265;28;19925;-61
2022/12/06 06:53:21;;;;;;;;;;;;;;;31.47;nan;101344.59;5065816;28;19924;-62
2022/12/06 06:55:47;;;;;;;;;;;;;;;31.55;nan;101339.81;5063851;28;20330;-61
2022/12/06 06:58:14;;;;;;;;;;;;;;;29.63;nan;101349.16;5077204;28;19932;-61
2022/12/06 07:00:41;;;;;;;;;;;;;;;29.13;nan;101340.00;5075317;28;20813;-61
2022/12/06 07:03:12;;;;;;;;;;;;;;;30.42;nan;101356.50;5075524;28;19912;-61
2022/12/06 07:05:39;;;;;;;;;;;;;;;30.59;nan;101364.31;5071425;28;20269;-61
2022/12/06 07:08:05;;;;;;;;;;;;;;;30.51;nan;101357.00;5076943;28;19928;-61
2022/12/06 07:10:31;;;;;;;;;;;;;;;28.95;nan;101362.09;5069555;28;19928;-61
2022/12/06 07:12:59;;;;;;;;;;;;;;;30.12;nan;101359.38;5059861;28;19936;-61
2022/12/06 07:15:25;;;;;;;;;;;;;;;29.25;nan;101361.34;5069818;28;20050;-61
2022/12/06 07:17:52;;;;;;;;;;;;;;;29.98;nan;101357.19;5074763;28;19974;-61
2022/12/06 07:20:19;;;;;;;;;;;;;;;29.97;nan;101347.16;5068016;28;20571;-60
2022/12/06 07:22:45;;;;;;;;;;;;;;;28.18;nan;101354.63;5072124;28;20303;-62
2022/12/06 07:25:12;;;;;;;;;;;;;;;29.58;nan;101355.06;5067110;28;19973;-62
2022/12/06 07:27:38;;;;;;;;;;;;;;;29.34;nan;101357.09;5074422;28;19919;-61
2022/12/06 07:30:05;;;;;;;;;;;;;;;29.36;nan;101354.72;5069648;28;20466;-61
2022/12/06 07:32:35;;;;;;;;;;;;;;;28.08;nan;101360.00;5073666;28;19932;-61
2022/12/06 07:35:03;;;;;;;;;;;;;;;29.72;nan;101349.66;5082111;28;19990;-61
2022/12/06 07:37:29;;;;;;;;;;;;;;;28.74;nan;101359.72;5074342;28;19925;-62
2022/12/06 07:39:56;;;;;;;;;;;;;;;30.06;nan;101356.13;5070044;28;20391;-61
2022/12/06 07:45:07;;;;;;;;;;;;;;;28.95;nan;101370.47;5070934;28;19920;-61
2022/12/06 07:47:35;;;;;;;;;;;;;;;29.31;nan;101371.06;5070366;28;20149;-61
2022/12/06 07:50:01;;;;;;;;;;;;;;;30.47;nan;101358.97;5071563;28;19920;-61
2022/12/06 07:52:34;;;;;;;;;;;;;;;28.95;nan;101350.91;5072029;28;20374;-61
2022/12/06 07:55:01;;;;;;;;;;;;;;;31.07;nan;101342.72;5102783;27;19971;-61
2022/12/06 07:57:27;;;;;;;;;;;;;;;29.73;nan;101337.25;5076814;28;19977;-62
2022/12/06 07:59:54;;;;;;;;;;;;;;;30.12;nan;101334.16;5067525;28;20007;-61
2022/12/06 08:02:22;;;;;;;;;;;;;;;28.87;nan;101340.75;5071847;28;19920;-59
2022/12/06 08:04:48;;;;;;;;;;;;;;;29.27;nan;101345.00;5067951;28;20337;-60
2022/12/06 08:07:15;;;;;;;;;;;;;;;28.72;nan;101338.84;5073449;28;20030;-60
2022/12/06 08:09:41;;;;;;;;;;;;;;;29.86;nan;101332.22;5075190;28;19974;-60
2022/12/06 08:12:08;;;;;;;;;;;;;;;29.06;nan;101326.66;5061977;28;20015;-60
2022/12/06 08:14:35;;;;;;;;;;;;;;;30.10;nan;101331.72;5074165;28;19970;-60
2022/12/06 08:17:02;;;;;;;;;;;;;;;29.94;nan;101325.50;5066623;28;20393;-60
2022/12/06 08:19:28;;;;;;;;;;;;;;;30.57;nan;101325.41;5065162;28;19971;-60
2022/12/06 08:21:54;;;;;;;;;;;;;;;30.06;nan;101328.91;5062716;28;19982;-60
2022/12/06 08:24:21;;;;;;;;;;;;;;;28.19;nan;101335.91;5067553;28;19920;-60
2022/12/06 08:26:47;;;;;;;;;;;;;;;30.40;nan;101330.84;5072383;28;19922;-61
2022/12/06 08:29:13;;;;;;;;;;;;;;;29.55;nan;101331.41;5065347;28;20012;-60
2022/12/06 08:31:40;;;;;;;;;;;;;;;30.51;nan;101326.13;5066329;28;19931;-60
2022/12/06 08:34:06;;;;;;;;;;;;;;;28.58;nan;101328.25;5071965;28;19927;-60
2022/12/06 08:36:33;;;;;;;;;;;;;;;27.93;nan;101326.19;5075793;28;19916;-61
2022/12/06 08:38:59;;;;;;;;;;;;;;;29.29;nan;101326.63;5073018;28;19981;-61
2022/12/06 08:44:12;;;;;;;;;;;;;;;29.80;nan;101331.72;5071754;28;19931;-61
2022/12/06 08:46:38;;;;;;;;;;;;;;;29.46;nan;101325.31;5068852;28;19927;-61
2022/12/06 08:49:05;;;;;;;;;;;;;;;29.41;nan;101334.78;5083138;28;19924;-61
2022/12/06 08:51:32;;;;;;;;;;;;;;;29.85;nan;101347.44;5093026;28;20069;-61
2022/12/06 08:53:59;;;;;;;;;;;;;;;28.74;nan;101342.13;5092867;28;20015;-61
2022/12/06 08:56:26;;;;;;;;;;;;;;;28.85;nan;101345.88;5092956;28;20397;-61
2022/12/06 08:58:53;;;;;;;;;;;;;;;30.85;nan;101347.31;5092253;28;19920;-61
2022/12/06 09:01:25;;;;;;;;;;;;;;;29.06;nan;101349.06;5092851;28;19916;-61
2022/12/06 09:03:52;;;;;;;;;;;;;;;27.90;nan;101352.06;5092778;28;19967;-61
2022/12/06 09:06:18;;;;;;;;;;;;;;;28.87;nan;101344.34;5092985;28;20238;-61
2022/12/06 09:08:45;;;;;;;;;;;;;;;28.82;nan;101341.03;5092865;28;19930;-61
2022/12/06 09:11:12;;;;;;;;;;;;;;;28.35;nan;101356.19;5092869;28;19916;-61
2022/12/06 09:13:38;;;;;;;;;;;;;;;27.97;nan;101366.19;5092641;28;19927;-61
2022/12/06 09:16:23;;;;;;;;;;;;;;;28.85;nan;101360.69;5093014;28;19920;-61
2022/12/06 09:18:53;;;;;;;;;;;;;;;28.89;nan;101361.56;5092968;28;19966;-61
2022/12/06 09:21:21;;;;;;;;;;;;;;;29.53;nan;101361.81;5092873;28;19920;-61
2022/12/06 09:23:48;;;;;;;;;;;;;;;28.94;nan;101363.28;5092775;28;19916;-62
2022/12/06 09:26:15;;;;;;;;;;;;;;;28.68;nan;101363.16;5092924;28;20049;-61
2022/12/06 09:28:43;;;;;;;;;;;;;;;28.01;nan;101371.88;5092777;28;20012;-61
2022/12/06 09:31:09;;;;;;;;;;;;;;;28.85;nan;101366.28;5092824;28;19922;-62
2022/12/06 09:33:36;;;;;;;;;;;;;;;29.30;nan;101361.84;5092594;28;20027;-61
2022/12/06 09:36:05;;;;;;;;;;;;;;;30.47;nan;101350.56;5092670;28;19920;-61
2022/12/06 09:38:34;;;;;;;;;;;;;;;28.41;nan;101356.69;5092700;28;19942;-61
2022/12/06 09:41:09;;;;;;;;;;;;;;;28.97;nan;101372.91;5092753;28;19924;-61
2022/12/06 09:43:54;;;;;;;;;;;;;;;29.38;nan;101371.16;5094590;28;20381;-61
2022/12/06 09:46:29;;;;;;;;;;;;;;;30.01;nan;101371.25;5096322;28;19920;-62
2022/12/06 09:49:08;;;;;;;;;;;;;;;30.28;nan;101372.00;5096503;28;19926;-61
2022/12/06 09:51:48;;;;;;;;;;;;;;;29.58;nan;101367.06;5096124;28;20344;-61
2022/12/06 09:54:27;;;;;;;;;;;;;;;27.67;nan;101373.53;5095974;28;19971;-61
2022/12/06 09:56:56;;;;;;;;;;;;;;;29.90;nan;101364.69;5095738;28;20364;-62
2022/12/06 09:59:39;;;;;;;;;;;;;;;28.97;nan;101370.91;5096102;28;19919;-61
2022/12/06 10:02:27;;;;;;;;;;;;;;;28.28;nan;101397.97;5094728;28;19927;-61
2022/12/06 10:05:00;;;;;;;;;;;;;;;28.67;nan;101395.13;5096081;28;19946;-61
2022/12/06 10:07:26;;;;;;;;;;;;;;;29.20;nan;101387.69;5095892;28;19955;-62
2022/12/06 10:09:52;;;;;;;;;;;;;;;28.88;nan;101384.34;5096061;28;19916;-61
2022/12/06 10:12:27;;;;;;;;;;;;;;;27.48;nan;101393.00;5095869;28;19963;-61
2022/12/06 10:15:12;;;;;;;;;;;;;;;28.55;nan;101384.94;5095586;28;20278;-62
2022/12/06 10:17:58;;;;;;;;;;;;;;;28.47;nan;101386.78;5095686;28;20396;-62
2022/12/06 10:20:33;;;;;;;;;;;;;;;28.48;nan;101382.78;5095712;28;20006;-62
2022/12/06 10:22:59;;;;;;;;;;;;;;;28.06;nan;101384.72;5095512;28;19995;-62
2022/12/06 10:25:33;;;;;;;;;;;;;;;27.48;nan;101381.84;5095798;28;19916;-62
2022/12/06 10:28:10;;;;;;;;;;;;;;;27.30;nan;101387.00;5095515;28;19961;-62
2022/12/06 10:30:43;;;;;;;;;;;;;;;28.46;nan;101384.34;5095532;28;20012;-62
2022/12/06 10:33:32;;;;;;;;;;;;;;;28.33;nan;101389.28;5095435;28;19920;-62
2022/12/06 10:36:00;;;;;;;;;;;;;;;27.65;nan;101387.88;5087868;28;19920;-62
2022/12/06 10:38:47;;;;;;;;;;;;;;;27.21;nan;101375.22;5093260;28;19920;-62
2022/12/06 10:41:16;;;;;;;;;;;;;;;28.04;nan;101378.69;5093042;28;19920;-62
2022/12/06 10:43:57;;;;;;;;;;;;;;;27.99;nan;101379.78;5093143;28;19922;-62
2022/12/06 10:49:22;;;;;;;;;;;;;;;27.52;nan;101365.97;5093137;28;19927;-61
2022/12/06 10:51:55;;;;;;;;;;;;;;;27.59;nan;101368.91;5095116;28;20491;-61
2022/12/06 10:54:27;;;;;;;;;;;;;;;28.70;nan;101375.59;5094002;28;19920;-61
2022/12/06 10:56:55;;;;;;;;;;;;;;;27.10;nan;101372.97;5086201;28;20296;-62
2022/12/06 10:59:36;;;;;;;;;;;;;;;28.26;nan;101378.78;5073422;28;20023;-61
2022/12/06 11:02:16;;;;;;;;;;;;;;;27.97;nan;101380.16;5074554;28;19998;-61
2022/12/06 11:04:45;;;;;;;;;;;;;;;27.15;nan;101380.25;5074579;28;19916;-62
2022/12/06 11:07:17;;;;;;;;;;;;;;;28.93;nan;101378.44;5074456;28;20003;-62
2022/12/06 11:09:45;;;;;;;;;;;;;;;27.76;nan;101378.88;5074449;28;19928;-61
2022/12/06 11:12:20;;;;;;;;;;;;;;;27.80;nan;101380.59;5074363;28;19917;-62
2022/12/06 11:14:49;;;;;;;;;;;;;;;28.17;nan;101383.75;5074364;28;19921;-62
2022/12/06 11:17:23;;;;;;;;;;;;;;;28.71;nan;101376.41;5074269;28;19916;-61
2022/12/06 11:19:51;;;;;;;;;;;;;;;28.07;nan;101384.34;5074358;28;19924;-61
2022/12/06 11:22:20;;;;;;;;;;;;;;;28.93;nan;101372.84;5074168;28;20013;-61
2022/12/06 11:24:53;;;;;;;;;;;;;;;29.43;nan;101370.81;5074345;28;20305;-61
2022/12/06 11:27:33;;;;;;;;;;;;;;;27.78;nan;101365.38;5074101;28;19920;-61
2022/12/06 11:30:01;;;;;;;;;;;;;;;28.31;nan;101372.09;5074303;28;19927;-61
2022/12/06 11:32:27;;;;;;;;;;;;;;;26.14;nan;101369.56;5073894;28;20325;-61
2022/12/06 11:34:59;;;;;;;;;;;;;;;27.51;nan;101364.34;5074032;28;20023;-61
2022/12/06 11:37:29;;;;;;;;;;;;;;;28.32;nan;101362.50;5073905;28;19928;-61
2022/12/06 11:40:02;;;;;;;;;;;;;;;27.74;nan;101364.50;5073776;28;19920;-61
2022/12/06 11:42:29;;;;;;;;;;;;;;;28.08;nan;101365.59;5073786;28;19924;-61
2022/12/06 11:45:06;;;;;;;;;;;;;;;28.94;nan;101363.28;5073818;28;20027;-61
2022/12/06 11:47:33;;;;;;;;;;;;;;;28.08;nan;101360.00;5073813;28;20407;-61
2022/12/06 11:49:59;;;;;;;;;;;;;;;27.08;nan;101363.34;5073735;28;19916;-61
2022/12/06 11:52:37;;;;;;;;;;;;;;;28.93;nan;101352.47;5073684;28;19924;-61
2022/12/06 11:55:06;;;;;;;;;;;;;;;27.67;nan;101363.16;5073418;28;19928;-61
2022/12/06 11:57:36;;;;;;;;;;;;;;;27.97;nan;101370.97;5073488;28;19924;-61
2022/12/06 12:00:16;;;;;;;;;;;;;;;28.73;nan;101374.88;5073655;28;20373;-61
2022/12/06 12:02:43;;;;;;;;;;;;;;;27.82;nan;101374.63;5073608;28;19921;-61
2022/12/06 12:05:14;;;;;;;;;;;;;;;27.45;nan;101368.59;5073548;28;20349;-61
2022/12/06 12:07:40;;;;;;;;;;;;;;;28.59;nan;101367.03;5073551;28;19920;-61
2022/12/06 12:10:27;;;;;;;;;;;;;;;29.96;nan;101362.34;5073617;28;19977;-61
2022/12/06 12:15:47;;;;;;;;;;;;;;;28.21;nan;101358.69;5073619;28;20371;-61
2022/12/06 12:18:28;;;;;;;;;;;;;;;28.92;nan;101357.25;5073619;28;19974;-61
2022/12/06 12:20:55;;;;;;;;;;;;;;;28.28;nan;101370.03;5073353;28;19974;-61
2022/12/06 12:23:38;;;;;;;;;;;;;;;27.95;nan;101374.13;5073336;28;19917;-61
2022/12/06 12:26:07;;;;;;;;;;;;;;;27.47;nan;101374.59;5073399;28;19920;-60
2022/12/06 12:28:34;;;;;;;;;;;;;;;28.45;nan;101380.75;5073385;28;20375;-61
2022/12/06 12:31:19;;;;;;;;;;;;;;;27.98;nan;101381.78;5073313;28;19920;-60
2022/12/06 12:33:46;;;;;;;;;;;;;;;28.62;nan;101378.66;5072837;28;19943;-60
2022/12/06 12:36:24;;;;;;;;;;;;;;;29.00;nan;101378.56;5073159;28;19942;-61
2022/12/06 12:38:54;;;;;;;;;;;;;;;28.14;nan;101378.09;5073312;28;19966;-61
2022/12/06 12:41:22;;;;;;;;;;;;;;;27.96;nan;101381.34;5073210;28;19956;-61
2022/12/06 12:43:59;;;;;;;;;;;;;;;28.87;nan;101382.72;5073087;28;20273;-61
2022/12/06 12:46:27;;;;;;;;;;;;;;;28.89;nan;101383.97;5073118;28;20072;-61
2022/12/06 12:48:54;;;;;;;;;;;;;;;28.70;nan;101388.78;5073535;28;19923;-62
2022/12/06 12:51:27;;;;;;;;;;;;;;;29.52;nan;101379.81;5073053;28;19921;-62
2022/12/06 12:53:56;;;;;;;;;;;;;;;30.36;nan;101376.50;5073037;28;19928;-62
2022/12/06 12:56:22;;;;;;;;;;;;;;;30.84;nan;101376.59;5072724;28;19927;-62
2022/12/06 12:58:50;;;;;;;;;;;;;;;30.25;nan;101377.56;5073105;28;19921;-62
2022/12/06 13:01:23;;;;;;;;;;;;;;;29.65;nan;101383.19;5072279;28;19917;-62
2022/12/06 13:03:51;;;;;;;;;;;;;;;29.56;nan;101385.44;5072946;28;20301;-61
2022/12/06 13:06:26;;;;;;;;;;;;;;;30.43;nan;101392.59;5072793;28;19923;-61
2022/12/06 13:08:54;;;;;;;;;;;;;;;31.27;nan;101391.81;5072838;28;19921;-61
2022/12/06 13:11:20;;;;;;;;;;;;;;;30.81;nan;101391.41;5072830;28;19971;-61
2022/12/06 13:13:48;;;;;;;;;;;;;;;32.01;nan;101396.28;5072924;28;19971;-61
2022/12/06 13:16:18;;;;;;;;;;;;;;;30.74;nan;101396.16;5072796;28;19970;-61
2022/12/06 13:18:46;;;;;;;;;;;;;;;31.64;nan;101402.09;5075746;28;19927;-61
2022/12/06 13:21:22;;;;;;;;;;;;;;;31.01;nan;101402.41;5076560;28;19962;-60
2022/12/06 13:23:54;;;;;;;;;;;;;;;30.21;nan;101413.19;5076556;28;19921;-61
2022/12/06 13:26:26;;;;;;;;;;;;;;;30.72;nan;101418.19;5076540;28;20379;-62
2022/12/06 13:28:56;;;;;;;;;;;;;;;30.33;nan;101427.72;5109014;28;20344;-62
2022/12/06 13:31:25;;;;;;;;;;;;;;;30.05;nan;101427.41;5074312;28;19947;-61
2022/12/06 13:33:55;;;;;;;;;;;;;;;30.00;nan;101436.13;5076200;28;19920;-60
2022/12/06 13:36:23;;;;;;;;;;;;;;;30.30;nan;101447.31;5076273;28;20443;-61
2022/12/06 13:38:49;;;;;;;;;;;;;;;29.52;nan;101449.00;5076128;28;19917;-60
2022/12/06 13:44:40;;;;;;;;;;;;;;;29.05;nan;101451.00;5075152;28;19943;-61